Terminal Aerodrome Forecast
Issued by NWS

Current Version | Previous Version | Graphics & Text | Print | Product List | Glossary On
Versions: 1 2 3 4 5 6 7 8 9 10 11 12 13 14 15 16 17 18 19 20 21 22 23
000
FTUS41 KILN 140530
TAFLCK
TAF
KLCK 140530Z 1406/1506 07010KT P6SM OVC070
     FM140700 05005KT P6SM VCSH BKN080 OVC120
     FM141200 06003KT P6SM VCSH SCT012 OVC025
     FM141500 00000KT 5SM BR VCSH OVC012
     FM142100 31004KT P6SM OVC025
     FM150000 33005KT P6SM OVC011=

USA.gov is the U.S. government's official web portal to all federal, state and local government web resources and services.